Time;durP1;ratioP1;P1;durP2;ratioP2;P2;SDS_P1;SDS_P2;PMS_P1;PMS_P2;Temp;Humidity;BMP_temperature;BMP_pressure;BME280_temperature;BME280_humidity;BME280_pressure;Samples;Min_cycle;Max_cycle;Signal;HPM_P1;HPM_P2
2021/09/26 00:01:02;;;;;;;9.25;5.55;;;;;;;16.09;87.71;101640.66;10144293;28;20496;-71
2021/09/26 00:05:59;;;;;;;9.43;5.20;;;;;;;16.11;87.73;101643.09;10152226;28;20042;-71
2021/09/26 00:10:56;;;;;;;10.73;5.70;;;;;;;16.13;87.87;101641.63;10150608;28;20050;-71
2021/09/26 00:15:52;;;;;;;9.00;4.53;;;;;;;16.14;87.85;101651.50;10146574;28;20043;-70
2021/09/26 00:20:49;;;;;;;6.82;3.70;;;;;;;16.12;87.92;101653.78;10149885;28;20046;-70
2021/09/26 00:25:45;;;;;;;6.95;3.35;;;;;;;16.14;87.96;101650.69;10138379;28;20066;-71
2021/09/26 00:30:42;;;;;;;6.75;3.80;;;;;;;16.13;87.79;101649.88;10145925;28;20137;-71
2021/09/26 00:35:38;;;;;;;6.40;3.13;;;;;;;16.13;87.48;101649.88;10148125;28;20073;-69
2021/09/26 00:40:36;;;;;;;5.78;3.15;;;;;;;16.06;86.84;101644.09;10149450;28;20046;-72
2021/09/26 00:45:32;;;;;;;7.03;3.30;;;;;;;16.01;86.49;101641.50;10146688;28;20122;-71
2021/09/26 00:50:29;;;;;;;5.57;2.95;;;;;;;15.91;86.54;101639.13;10149724;28;20129;-70
2021/09/26 00:55:25;;;;;;;6.22;3.28;;;;;;;15.84;86.68;101642.41;10148570;28;20062;-71
2021/09/26 01:00:22;;;;;;;7.63;3.17;;;;;;;15.75;86.58;101642.41;10155638;28;20058;-70
2021/09/26 01:05:19;;;;;;;7.57;3.10;;;;;;;15.69;86.61;101642.94;10150775;28;20047;-71
2021/09/26 01:10:26;;;;;;;5.60;2.88;;;;;;;15.67;86.92;101640.50;10154019;28;20107;-70
2021/09/26 01:15:56;;;;;;;7.70;3.40;;;;;;;15.68;87.01;101644.84;10153920;28;20071;-69
2021/09/26 01:20:59;;;;;;;7.18;3.35;;;;;;;15.72;87.32;101640.34;10147621;28;20556;-71
2021/09/26 01:26:20;;;;;;;6.72;3.05;;;;;;;15.73;87.56;101633.69;10152877;28;20038;-70
2021/09/26 01:31:24;;;;;;;7.75;3.55;;;;;;;15.77;88.03;101647.63;10142583;28;20520;-72
2021/09/26 01:36:26;;;;;;;5.82;3.13;;;;;;;15.77;88.30;101637.38;10149308;28;20051;-70
2021/09/26 01:41:38;;;;;;;6.65;3.30;;;;;;;15.80;88.28;101635.13;10149436;28;20058;-69
2021/09/26 01:46:37;;;;;;;4.60;2.90;;;;;;;15.81;88.24;101647.78;10146608;28;20137;-70
2021/09/26 01:51:36;;;;;;;6.22;3.30;;;;;;;15.80;88.34;101635.91;10147128;28;20505;-69
2021/09/26 01:56:34;;;;;;;7.10;3.00;;;;;;;15.81;88.53;101636.75;10142682;28;20138;-72
2021/09/26 02:01:32;;;;;;;6.70;3.35;;;;;;;15.78;88.43;101644.53;10154724;28;20074;-72
2021/09/26 02:06:29;;;;;;;7.15;3.05;;;;;;;15.76;88.49;101635.78;10147139;28;20089;-72
2021/09/26 02:11:27;;;;;;;9.00;3.25;;;;;;;15.77;88.86;101636.59;10147161;28;20536;-72
2021/09/26 02:16:24;;;;;;;5.07;2.70;;;;;;;15.76;89.21;101635.78;10146581;28;20123;-71
2021/09/26 02:21:22;;;;;;;5.22;2.90;;;;;;;15.76;88.93;101640.50;10144856;28;20052;-70
2021/09/26 02:26:20;;;;;;;5.22;2.85;;;;;;;15.76;89.09;101635.78;10145772;28;20097;-72
2021/09/26 02:31:17;;;;;;;6.25;2.78;;;;;;;15.76;89.00;101630.28;10137204;28;20104;-72
2021/09/26 02:36:14;;;;;;;6.57;2.67;;;;;;;15.76;89.15;101627.50;10150125;28;20064;-71
2021/09/26 02:41:26;;;;;;;6.25;2.72;;;;;;;15.74;89.15;101627.03;10152083;28;20054;-71
2021/09/26 02:46:29;;;;;;;6.47;2.78;;;;;;;15.74;89.03;101627.03;10137333;28;20077;-70
2021/09/26 02:51:27;;;;;;;7.10;3.20;;;;;;;15.72;89.23;101623.78;10147406;28;20054;-71
2021/09/26 02:56:25;;;;;;;5.28;2.90;;;;;;;15.72;89.58;101618.28;10150270;28;20050;-70
2021/09/26 03:01:22;;;;;;;7.55;3.38;;;;;;;15.70;89.60;101620.56;10150330;28;20508;-69
2021/09/26 03:06:18;;;;;;;6.43;3.30;;;;;;;15.68;89.70;101625.56;10146679;28;20386;-70
2021/09/26 03:11:15;;;;;;;7.10;3.15;;;;;;;15.69;89.63;101616.16;10145617;28;20485;-72
2021/09/26 03:16:11;;;;;;;7.53;3.35;;;;;;;15.70;89.91;101615.03;10140288;28;20574;-70
2021/09/26 03:21:08;;;;;;;5.00;3.08;;;;;;;15.71;89.90;101611.16;10150912;28;20046;-72
2021/09/26 03:26:04;;;;;;;5.53;3.33;;;;;;;15.69;90.26;101605.13;10149659;28;20039;-71
2021/09/26 03:31:01;;;;;;;7.40;3.80;;;;;;;15.72;90.61;101601.75;10144385;28;20130;-72
2021/09/26 03:35:58;;;;;;;8.02;3.78;;;;;;;15.74;90.68;101599.47;10131322;28;20042;-72
2021/09/26 03:40:54;;;;;;;8.15;4.38;;;;;;;15.76;91.06;101601.91;10149524;28;20042;-70
2021/09/26 03:45:51;;;;;;;9.48;4.43;;;;;;;15.76;91.17;101597.19;10144494;28;20109;-72
2021/09/26 03:50:48;;;;;;;12.82;5.03;;;;;;;15.77;91.50;101597.97;10141443;28;20044;-72
2021/09/26 03:55:45;;;;;;;10.27;4.93;;;;;;;15.80;91.65;101602.03;10141173;28;20065;-72
2021/09/26 04:00:42;;;;;;;9.50;4.80;;;;;;;15.80;91.85;101586.28;10145591;28;20046;-72
2021/09/26 04:05:38;;;;;;;10.23;5.75;;;;;;;15.83;92.00;101590.31;10141232;28;20066;-72
2021/09/26 04:10:35;;;;;;;8.32;4.90;;;;;;;15.85;92.38;101588.03;10163886;28;20039;-70
2021/09/26 04:15:32;;;;;;;8.90;4.70;;;;;;;15.86;92.21;101595.19;10140271;28;20488;-71
2021/09/26 04:20:29;;;;;;;9.65;5.30;;;;;;;15.84;92.84;101578.16;10146954;28;20046;-71
2021/09/26 04:25:26;;;;;;;10.80;5.30;;;;;;;15.87;92.81;101585.75;10150403;28;20054;-72
2021/09/26 04:30:22;;;;;;;10.20;6.85;;;;;;;15.82;93.13;101583.19;10147395;28;20078;-72
2021/09/26 04:35:19;;;;;;;9.52;5.45;;;;;;;15.88;92.97;101570.84;10149486;28;20047;-71
2021/09/26 04:40:16;;;;;;;8.25;6.45;;;;;;;15.85;93.35;101577.00;10154364;28;20121;-72
2021/09/26 04:45:12;;;;;;;11.05;6.43;;;;;;;15.87;93.38;101574.72;10151483;28;20457;-71
2021/09/26 04:50:10;;;;;;;12.52;7.13;;;;;;;15.87;93.39;101574.72;10150737;28;20050;-70
2021/09/26 04:55:07;;;;;;;10.25;6.88;;;;;;;15.87;93.70;101577.50;10157385;28;20154;-73
2021/09/26 05:00:07;;;;;;;13.88;7.53;;;;;;;15.88;93.67;101581.88;10153319;28;20512;-70
2021/09/26 05:05:04;;;;;;;11.90;7.80;;;;;;;15.90;93.57;101579.59;10149746;28;20524;-71
2021/09/26 05:10:00;;;;;;;12.00;7.50;;;;;;;15.87;93.78;101580.25;10150440;28;20085;-70
2021/09/26 05:15:01;;;;;;;13.90;7.90;;;;;;;15.87;94.22;101588.53;10156338;28;20081;-72
2021/09/26 05:19:59;;;;;;;13.18;7.78;;;;;;;15.84;94.79;101586.44;10156057;28;20062;-72
2021/09/26 05:24:55;;;;;;;11.30;7.72;;;;;;;15.89;94.24;101577.97;10155301;28;20078;-72
2021/09/26 05:29:52;;;;;;;11.70;7.68;;;;;;;15.90;94.26;101582.38;10158752;28;20054;-71
2021/09/26 05:34:49;;;;;;;12.25;8.38;;;;;;;15.88;94.47;101582.69;10152699;28;20046;-72
2021/09/26 05:39:45;;;;;;;11.02;8.68;;;;;;;15.92;94.31;101582.81;10158910;28;20042;-72
2021/09/26 05:44:42;;;;;;;10.40;7.80;;;;;;;15.91;94.56;101581.22;10145287;28;20393;-72
2021/09/26 05:49:38;;;;;;;13.70;7.72;;;;;;;15.90;94.86;101580.41;10156982;28;20130;-73
2021/09/26 05:54:37;;;;;;;12.50;8.32;;;;;;;15.94;94.57;101580.53;10144437;28;20205;-73
2021/09/26 05:59:40;;;;;;;14.57;8.73;;;;;;;15.91;95.53;101592.25;10151002;28;20567;-73
2021/09/26 06:04:37;;;;;;;11.70;7.70;;;;;;;15.99;95.01;101578.41;10148941;28;20412;-73
2021/09/26 06:09:34;;;;;;;11.32;7.97;;;;;;;16.03;95.12;101584.03;10152079;28;20073;-71
2021/09/26 06:14:30;;;;;;;10.88;7.57;;;;;;;16.07;95.01;101585.00;10147184;28;20047;-72
2021/09/26 06:19:27;;;;;;;10.13;8.20;;;;;;;16.12;94.80;101581.25;10143350;28;20042;-73
2021/09/26 06:24:23;;;;;;;10.90;7.38;;;;;;;16.16;95.17;101583.00;10142003;28;20054;-72
2021/09/26 06:29:20;;;;;;;11.10;7.60;;;;;;;16.13;95.03;101589.19;10149327;28;20050;-73
2021/09/26 06:34:16;;;;;;;13.18;7.28;;;;;;;16.11;95.36;101590.69;10153341;28;20046;-70
2021/09/26 06:39:12;;;;;;;9.73;7.68;;;;;;;16.11;94.77;101588.72;10149053;28;20038;-72
2021/09/26 06:44:09;;;;;;;12.73;9.30;;;;;;;16.09;94.75;101588.25;10137622;28;20093;-73
2021/09/26 06:49:06;;;;;;;13.55;8.15;;;;;;;16.11;94.74;101591.47;10143199;28;20044;-72
2021/09/26 06:54:02;;;;;;;11.13;7.55;;;;;;;16.14;95.04;101584.47;10147607;28;20078;-72
2021/09/26 06:58:59;;;;;;;11.40;8.70;;;;;;;16.17;94.75;101584.59;10148621;28;20062;-72
2021/09/26 07:03:55;;;;;;;17.95;9.50;;;;;;;16.20;94.73;101578.44;10148655;28;20483;-70
2021/09/26 07:08:52;;;;;;;14.30;9.48;;;;;;;16.25;94.72;101584.91;10131998;28;20070;-71
2021/09/26 07:13:49;;;;;;;10.05;7.97;;;;;;;16.28;94.58;101585.03;10133048;28;20046;-73
2021/09/26 07:18:45;;;;;;;10.43;6.75;;;;;;;16.34;93.99;101588.41;10124267;28;20054;-69
2021/09/26 07:23:45;;;;;;;10.75;8.02;;;;;;;16.38;94.15;101594.84;10135512;28;20050;-71
2021/09/26 07:28:41;;;;;;;10.05;6.70;;;;;;;16.45;93.92;101595.13;10139142;28;20054;-73
2021/09/26 07:33:37;;;;;;;10.30;6.70;;;;;;;16.53;94.60;101596.22;10127061;28;20401;-73
2021/09/26 07:38:34;;;;;;;12.40;6.75;;;;;;;16.60;93.70;101586.25;10120495;28;20042;-75
2021/09/26 07:43:30;;;;;;;11.40;6.38;;;;;;;16.72;92.89;101571.69;10130380;28;20076;-73
2021/09/26 07:48:27;;;;;;;10.52;6.00;;;;;;;16.82;91.78;101576.00;10129817;28;20101;-75
2021/09/26 07:53:23;;;;;;;7.70;6.03;;;;;;;16.93;90.78;101577.19;10129030;28;20534;-75
2021/09/26 07:58:20;;;;;;;7.28;5.43;;;;;;;17.03;90.47;101576.78;10123964;28;20425;-75
2021/09/26 08:03:17;;;;;;;8.38;5.18;;;;;;;17.11;90.23;101577.03;10139819;28;20047;-70
2021/09/26 08:08:14;;;;;;;7.72;5.03;;;;;;;17.21;89.32;101571.06;10137278;28;20049;-71
2021/09/26 08:13:10;;;;;;;7.15;4.30;;;;;;;17.32;89.46;101571.44;10140961;28;20046;-71
2021/09/26 08:18:07;;;;;;;7.38;4.25;;;;;;;17.37;89.64;101574.78;10143965;28;20080;-70
2021/09/26 08:23:03;;;;;;;6.20;4.18;;;;;;;17.45;89.30;101571.09;10150949;28;20046;-70
2021/09/26 08:28:00;;;;;;;5.68;3.75;;;;;;;17.55;87.82;101563.50;10144715;28;20053;-69
2021/09/26 08:32:56;;;;;;;6.72;3.88;;;;;;;17.67;86.04;101566.28;10124954;28;20100;-70
2021/09/26 08:37:53;;;;;;;6.13;4.30;;;;;;;17.76;86.47;101575.25;10124741;28;20050;-69
2021/09/26 08:42:50;;;;;;;6.35;3.65;;;;;;;17.87;87.31;101565.38;10132801;28;20460;-69
2021/09/26 08:47:47;;;;;;;6.90;3.83;;;;;;;18.07;85.91;101563.63;10124969;28;20487;-70
2021/09/26 08:52:45;;;;;;;5.05;3.35;;;;;;;18.19;85.74;101560.00;10118840;28;20053;-69
2021/09/26 08:57:42;;;;;;;5.05;3.03;;;;;;;18.33;85.44;101569.91;10122638;28;20106;-69
2021/09/26 09:02:38;;;;;;;6.75;3.10;;;;;;;18.38;83.07;101570.50;10123274;28;20046;-69
2021/09/26 09:07:35;;;;;;;5.43;3.35;;;;;;;18.48;83.37;101566.41;10129110;28;20085;-70
2021/09/26 09:12:36;;;;;;;6.72;3.50;;;;;;;18.58;81.83;101560.38;10127687;28;20505;-68
2021/09/26 09:17:35;;;;;;;6.75;3.10;;;;;;;18.59;83.12;101561.16;10124817;28;20053;-68
2021/09/26 09:22:32;;;;;;;6.88;3.42;;;;;;;18.68;82.01;101550.75;10146372;28;20054;-69
2021/09/26 09:27:32;;;;;;;4.95;2.88;;;;;;;18.74;81.79;101548.53;10151207;28;20050;-68
2021/09/26 09:32:29;;;;;;;4.90;2.60;;;;;;;18.84;79.33;101545.28;10142750;28;20129;-69
2021/09/26 09:37:27;;;;;;;4.47;2.90;;;;;;;18.95;78.11;101545.56;10134014;28;20085;-69
2021/09/26 09:42:23;;;;;;;5.72;3.28;;;;;;;19.01;78.86;101555.25;10137334;28;20042;-69
2021/09/26 09:47:21;;;;;;;5.00;2.88;;;;;;;19.09;78.56;101548.72;10136711;28;20158;-69
2021/09/26 09:52:18;;;;;;;7.95;3.15;;;;;;;19.19;76.42;101541.84;10135516;28;20058;-68
2021/09/26 09:57:21;;;;;;;4.28;2.65;;;;;;;19.30;76.62;101546.50;10140887;28;20133;-69
2021/09/26 10:02:18;;;;;;;6.05;2.60;;;;;;;19.44;75.95;101546.06;10133129;28;20105;-68
2021/09/26 10:07:21;;;;;;;6.45;2.97;;;;;;;19.54;74.36;101539.97;10135598;28;20121;-68
2021/09/26 10:12:29;;;;;;;8.63;3.15;;;;;;;19.65;73.84;101544.97;10147123;28;20042;-70
2021/09/26 10:17:26;;;;;;;4.82;2.83;;;;;;;19.70;74.39;101528.91;10136340;28;20201;-70
2021/09/26 10:22:24;;;;;;;8.77;2.80;;;;;;;19.80;75.09;101535.84;10145156;28;20074;-70
2021/09/26 10:27:23;;;;;;;4.90;3.13;;;;;;;19.91;73.72;101514.72;10136312;28;20054;-70
2021/09/26 10:32:20;;;;;;;5.15;3.13;;;;;;;20.02;72.78;101514.13;10149531;28;20073;-69
2021/09/26 10:37:18;;;;;;;5.45;2.75;;;;;;;20.15;71.11;101513.63;10135045;28;20066;-69
2021/09/26 10:42:16;;;;;;;5.90;3.17;;;;;;;20.26;70.01;101511.09;10128898;28;20121;-70
2021/09/26 10:47:18;;;;;;;8.32;3.70;;;;;;;20.37;69.59;101514.88;10123023;28;20600;-70
2021/09/26 10:52:33;;;;;;;6.30;3.08;;;;;;;20.43;70.66;101509.03;10134963;28;20089;-70
2021/09/26 10:57:30;;;;;;;6.00;3.20;;;;;;;20.49;69.63;101504.78;10121326;28;20050;-70
2021/09/26 11:02:26;;;;;;;4.00;2.67;;;;;;;20.68;69.63;101490.91;10136427;28;20050;-69
2021/09/26 11:07:24;;;;;;;4.10;2.72;;;;;;;20.74;70.32;101494.97;10126130;28;20105;-70
2021/09/26 11:12:44;;;;;;;4.85;2.78;;;;;;;20.86;69.91;101490.41;10125457;28;20046;-70
2021/09/26 11:17:45;;;;;;;4.38;2.55;;;;;;;21.00;69.26;101487.88;10130738;28;20051;-70
2021/09/26 11:22:41;;;;;;;4.82;2.78;;;;;;;21.06;69.70;101472.53;10131005;28;20051;-70
2021/09/26 11:27:39;;;;;;;4.97;2.90;;;;;;;21.23;69.48;101483.16;10129196;28;20074;-70
2021/09/26 11:32:36;;;;;;;4.47;2.85;;;;;;;21.46;68.44;101473.97;10133542;28;20525;-70
2021/09/26 11:37:37;;;;;;;5.80;2.85;;;;;;;21.71;68.09;101474.34;10122391;28;20058;-70
2021/09/26 11:42:35;;;;;;;5.05;3.20;;;;;;;21.77;65.64;101472.84;10134863;28;20093;-70
2021/09/26 11:47:32;;;;;;;4.30;2.90;;;;;;;21.59;68.39;101467.03;10113446;28;20054;-71
2021/09/26 11:52:28;;;;;;;5.63;2.95;;;;;;;21.49;66.97;101473.25;10129224;28;20141;-70
2021/09/26 11:57:25;;;;;;;5.53;3.20;;;;;;;21.50;67.46;101463.72;10129264;28;20054;-70
2021/09/26 12:02:22;;;;;;;5.13;2.65;;;;;;;21.43;64.72;101458.03;10127392;28;20092;-70
2021/09/26 12:07:18;;;;;;;5.30;3.05;;;;;;;21.34;64.06;101449.94;10128951;28;20074;-70
2021/09/26 12:12:17;;;;;;;5.72;3.13;;;;;;;21.31;66.91;101461.00;10135494;28;20047;-70
2021/09/26 12:17:22;;;;;;;5.95;3.15;;;;;;;21.32;68.35;101457.84;10132382;28;20050;-70
2021/09/26 12:22:20;;;;;;;5.20;3.10;;;;;;;21.68;67.18;101452.06;10135305;28;20096;-70
2021/09/26 12:27:16;;;;;;;5.70;2.60;;;;;;;21.99;66.62;101457.22;10131984;28;20086;-70
2021/09/26 12:32:13;;;;;;;6.05;3.17;;;;;;;21.81;66.37;101456.19;10133637;28;20082;-70
2021/09/26 12:37:19;;;;;;;6.22;3.15;;;;;;;21.60;64.38;101454.69;10122031;28;20043;-71
2021/09/26 12:42:19;;;;;;;6.53;3.17;;;;;;;21.63;66.56;101451.19;10124111;28;20399;-70
2021/09/26 12:47:20;;;;;;;7.10;3.10;;;;;;;21.83;66.45;101448.25;10129084;28;20093;-69
2021/09/26 12:52:24;;;;;;;6.20;3.10;;;;;;;22.02;65.28;101450.09;10128603;28;20075;-70
2021/09/26 12:57:24;;;;;;;4.40;3.05;;;;;;;22.23;64.62;101455.16;10134767;28;20046;-70
2021/09/26 13:02:28;;;;;;;5.20;3.38;;;;;;;22.29;64.42;101448.06;10139209;28;20465;-69
2021/09/26 13:07:27;;;;;;;6.88;3.40;;;;;;;22.25;65.64;101453.59;10131805;28;20042;-69
2021/09/26 13:12:40;;;;;;;5.13;3.15;;;;;;;22.18;66.40;101447.09;10145372;28;20105;-70
2021/09/26 13:17:37;;;;;;;7.13;3.77;;;;;;;22.02;66.43;101450.91;10135871;28;20057;-69
2021/09/26 13:22:34;;;;;;;10.63;3.95;;;;;;;21.93;66.92;101447.63;10135971;28;20042;-69
2021/09/26 13:27:45;;;;;;;6.85;3.20;;;;;;;21.89;68.24;101452.34;10132331;28;20050;-70
2021/09/26 13:32:52;;;;;;;6.05;3.30;;;;;;;21.80;67.20;101440.69;10131911;28;20132;-70
2021/09/26 13:38:28;;;;;;;5.03;3.75;;;;;;;21.69;67.10;101442.50;10134638;28;20076;-70
2021/09/26 13:43:35;;;;;;;27.63;19.35;;;;;;;21.64;68.92;101438.88;10130063;28;20093;-70
2021/09/26 13:48:41;;;;;;;15.73;11.02;;;;;;;21.60;68.48;101448.34;10131015;28;20076;-70
2021/09/26 13:53:39;;;;;;;33.85;23.63;;;;;;;21.54;69.45;101442.31;10134814;28;20081;-70
2021/09/26 13:58:36;;;;;;;21.95;13.80;;;;;;;21.50;70.01;101441.44;10134041;28;20424;-70
2021/09/26 14:03:33;;;;;;;11.82;7.47;;;;;;;21.59;71.14;101439.19;10121328;28;20133;-70
2021/09/26 14:08:29;;;;;;;16.80;11.68;;;;;;;21.60;71.12;101434.44;10125619;28;20178;-70
2021/09/26 14:13:26;;;;;;;6.93;4.93;;;;;;;21.61;69.18;101447.97;10131625;28;20050;-70
2021/09/26 14:18:22;;;;;;;8.73;5.40;;;;;;;21.60;70.63;101442.78;10132662;28;20753;-70
2021/09/26 14:23:18;;;;;;;8.55;5.40;;;;;;;21.55;70.03;101448.69;10128198;28;20122;-71
2021/09/26 14:28:15;;;;;;;21.15;13.73;;;;;;;21.46;69.85;101435.03;10125227;28;20124;-70
2021/09/26 14:33:12;;;;;;;8.68;5.70;;;;;;;21.41;71.34;101438.94;10129763;28;20073;-70
2021/09/26 14:38:09;;;;;;;8.07;4.68;;;;;;;21.36;71.31;101430.09;10124558;28;20512;-71
2021/09/26 14:43:06;;;;;;;6.78;4.82;;;;;;;21.30;72.29;101431.56;10134499;28;20141;-69
2021/09/26 14:48:03;;;;;;;8.90;5.10;;;;;;;21.23;72.25;101421.97;10117344;28;20484;-71
2021/09/26 14:53:03;;;;;;;6.20;4.13;;;;;;;21.19;72.53;101426.66;10127947;28;20464;-69
2021/09/26 14:58:00;;;;;;;5.50;3.92;;;;;;;21.20;72.86;101427.47;10126249;28;20070;-70
2021/09/26 15:02:56;;;;;;;5.57;3.60;;;;;;;21.32;72.44;101423.66;10129526;28;20058;-70
2021/09/26 15:07:53;;;;;;;8.68;3.80;;;;;;;21.41;71.57;101415.88;10129758;28;20489;-70
2021/09/26 15:12:53;;;;;;;5.10;3.50;;;;;;;21.43;72.95;101419.09;10129316;28;20046;-71
2021/09/26 15:17:49;;;;;;;6.28;3.58;;;;;;;21.31;73.59;101422.88;10124910;28;20468;-74
2021/09/26 15:22:46;;;;;;;6.82;3.95;;;;;;;21.29;73.03;101413.28;10126032;28;20050;-72
2021/09/26 15:27:42;;;;;;;7.28;3.88;;;;;;;21.20;73.80;101411.56;10124801;28;20149;-72
2021/09/26 15:32:40;;;;;;;6.05;3.72;;;;;;;21.11;74.00;101419.38;10122873;28;20141;-70
2021/09/26 15:37:37;;;;;;;7.72;3.75;;;;;;;21.10;73.99;101417.78;10124426;28;20555;-73
2021/09/26 15:42:34;;;;;;;5.97;3.97;;;;;;;21.05;73.92;101420.06;10136978;28;20157;-71
2021/09/26 15:47:30;;;;;;;6.88;4.35;;;;;;;21.00;74.27;101421.19;10138173;28;20081;-71
2021/09/26 15:52:27;;;;;;;5.47;3.95;;;;;;;20.92;74.64;101417.47;10144707;28;20085;-72
2021/09/26 15:57:24;;;;;;;5.82;4.22;;;;;;;20.86;75.13;101416.19;10139084;28;20050;-70
2021/09/26 16:02:20;;;;;;;6.15;3.85;;;;;;;20.77;75.12;101415.63;10146331;28;20054;-69
2021/09/26 16:07:17;;;;;;;5.55;3.72;;;;;;;20.69;75.63;101409.16;10144414;28;20100;-74
2021/09/26 16:12:13;;;;;;;6.00;4.60;;;;;;;20.63;75.81;101409.81;10147829;28;20141;-72
2021/09/26 16:17:10;;;;;;;6.35;4.03;;;;;;;20.57;76.20;101404.59;10133409;28;20466;-70
2021/09/26 16:22:06;;;;;;;5.88;4.15;;;;;;;20.52;76.81;101407.63;10136413;28;20094;-69
2021/09/26 16:27:03;;;;;;;6.50;5.20;;;;;;;20.46;76.11;101400.78;10144671;28;20559;-69
2021/09/26 16:31:59;;;;;;;6.45;5.03;;;;;;;20.43;76.84;101404.28;10154701;28;20074;-70
2021/09/26 16:36:56;;;;;;;8.32;5.63;;;;;;;20.38;76.66;101404.59;10142175;28;20074;-69
2021/09/26 16:41:53;;;;;;;9.15;5.68;;;;;;;20.31;76.95;101410.81;10154969;28;20046;-69
2021/09/26 16:46:49;;;;;;;8.82;5.63;;;;;;;20.28;76.92;101411.53;10140984;28;20050;-69
2021/09/26 16:51:46;;;;;;;7.03;5.57;;;;;;;20.23;76.91;101417.41;10153451;28;20085;-71
2021/09/26 16:56:43;;;;;;;9.90;5.95;;;;;;;20.16;77.33;101414.47;10149891;28;20077;-73
2021/09/26 17:01:40;;;;;;;7.47;6.07;;;;;;;20.07;77.70;101417.47;10149339;28;20046;-69
2021/09/26 17:06:36;;;;;;;7.80;5.85;;;;;;;19.99;77.50;101420.50;10149658;28;20077;-68
2021/09/26 17:11:33;;;;;;;12.32;6.35;;;;;;;19.88;77.63;101421.06;10150433;28;20046;-71
2021/09/26 17:16:30;;;;;;;11.18;6.28;;;;;;;19.80;77.99;101424.88;10144932;28;20105;-71
2021/09/26 17:21:28;;;;;;;8.57;5.90;;;;;;;19.71;78.08;101421.50;10141698;28;20073;-70
2021/09/26 17:26:25;;;;;;;12.43;6.03;;;;;;;19.63;78.29;101425.25;10145826;28;20082;-71
2021/09/26 17:31:21;;;;;;;11.55;6.80;;;;;;;19.53;78.64;101421.84;10149835;28;20116;-68
2021/09/26 17:36:19;;;;;;;10.45;6.75;;;;;;;19.44;78.62;101435.13;10147825;28;20043;-70
2021/09/26 17:41:16;;;;;;;9.20;6.32;;;;;;;19.36;78.95;101430.59;10143063;28;20109;-69
2021/09/26 17:46:16;;;;;;;10.80;7.35;;;;;;;19.30;79.25;101443.13;10131030;28;20047;-70
2021/09/26 17:51:16;;;;;;;8.75;7.05;;;;;;;19.25;79.64;101460.03;10149633;28;20228;-69
2021/09/26 17:56:13;;;;;;;11.40;7.22;;;;;;;19.20;79.91;101457.53;10144705;28;20113;-70
2021/09/26 18:01:10;;;;;;;10.27;6.85;;;;;;;19.18;80.06;101460.66;10147513;28;20100;-69
2021/09/26 18:06:07;;;;;;;10.65;7.47;;;;;;;19.14;80.65;101460.56;10125735;28;20054;-72
2021/09/26 18:11:05;;;;;;;10.13;6.85;;;;;;;19.12;81.02;101454.59;10148479;28;20101;-69
2021/09/26 18:16:02;;;;;;;11.95;8.10;;;;;;;19.10;80.94;101459.69;10143540;28;20408;-71
2021/09/26 18:21:01;;;;;;;11.63;7.65;;;;;;;19.04;81.41;101454.75;10147338;28;20125;-71
2021/09/26 18:25:59;;;;;;;10.75;8.50;;;;;;;18.98;81.56;101456.19;10128926;28;20104;-72
2021/09/26 18:30:58;;;;;;;11.93;8.52;;;;;;;18.87;81.91;101453.16;10146677;28;20118;-70
2021/09/26 18:35:56;;;;;;;13.52;9.25;;;;;;;18.78;81.95;101452.53;10137746;28;20497;-70
2021/09/26 18:40:53;;;;;;;12.48;9.32;;;;;;;18.69;82.25;101463.72;10147939;28;20050;-70
2021/09/26 18:45:50;;;;;;;12.75;9.65;;;;;;;18.58;82.76;101452.34;10141596;28;20129;-69
2021/09/26 18:50:49;;;;;;;15.98;10.77;;;;;;;18.50;82.85;101464.41;10143792;28;20050;-73
2021/09/26 18:55:46;;;;;;;17.17;10.23;;;;;;;18.43;83.17;101464.22;10143233;28;20062;-73
2021/09/26 19:00:43;;;;;;;16.20;11.75;;;;;;;18.36;83.82;101464.03;10146043;28;20065;-69
2021/09/26 19:05:40;;;;;;;19.70;13.70;;;;;;;18.29;84.11;101470.97;10141049;28;20038;-70
2021/09/26 19:10:37;;;;;;;17.27;13.45;;;;;;;18.21;84.29;101468.34;10146908;28;20129;-71
2021/09/26 19:15:34;;;;;;;16.95;12.85;;;;;;;18.15;84.48;101472.50;10137648;28;20046;-73
2021/09/26 19:20:31;;;;;;;15.35;11.88;;;;;;;18.08;84.83;101471.16;10132099;28;20516;-74
2021/09/26 19:25:29;;;;;;;17.55;11.68;;;;;;;18.05;84.85;101482.91;10129205;28;20053;-71
2021/09/26 19:30:27;;;;;;;19.25;12.15;;;;;;;18.01;85.15;101481.19;10141053;28;20046;-72
2021/09/26 19:35:27;;;;;;;16.38;12.60;;;;;;;17.96;85.73;101485.03;10117514;28;20046;-74
2021/09/26 19:40:26;;;;;;;16.92;11.45;;;;;;;17.94;85.92;101492.03;10118576;28;20047;-73
2021/09/26 19:45:26;;;;;;;14.65;11.48;;;;;;;17.88;85.87;101495.06;10124718;28;20045;-73
2021/09/26 19:50:23;;;;;;;17.80;11.13;;;;;;;17.84;86.29;101496.91;10123462;28;20524;-73
2021/09/26 19:55:21;;;;;;;13.18;10.65;;;;;;;17.79;86.39;101497.13;10125882;28;20582;-72
2021/09/26 20:00:21;;;;;;;13.48;10.85;;;;;;;17.75;86.71;101485.13;10119683;28;20050;-71
2021/09/26 20:05:17;;;;;;;16.10;12.15;;;;;;;17.73;86.62;101493.00;10126640;28;20489;-72
2021/09/26 20:10:14;;;;;;;15.70;12.73;;;;;;;17.69;86.98;101486.53;10118486;28;20564;-72
2021/09/26 20:15:13;;;;;;;15.98;13.40;;;;;;;17.67;87.29;101491.59;10128614;28;20046;-72
2021/09/26 20:20:12;;;;;;;16.90;12.45;;;;;;;17.63;87.83;101504.50;10136702;28;20685;-72
2021/09/26 20:25:11;;;;;;;17.80;13.07;;;;;;;17.59;87.79;101498.06;10121338;28;20109;-72
2021/09/26 20:30:09;;;;;;;17.55;12.65;;;;;;;17.56;88.14;101504.28;10128731;28;20093;-71
2021/09/26 20:35:07;;;;;;;15.95;13.35;;;;;;;17.54;88.37;101501.06;10138365;28;20129;-70
2021/09/26 20:40:06;;;;;;;14.27;11.65;;;;;;;17.52;88.43;101504.19;10149977;28;20062;-72
2021/09/26 20:45:05;;;;;;;16.45;12.00;;;;;;;17.52;88.62;101503.34;10135556;28;20108;-73
2021/09/26 20:50:01;;;;;;;16.63;12.52;;;;;;;17.49;88.71;101501.28;10146113;28;20576;-72
2021/09/26 20:54:58;;;;;;;17.63;13.65;;;;;;;17.49;89.07;101509.59;10132055;28;20039;-72
2021/09/26 20:59:54;;;;;;;15.57;12.82;;;;;;;17.49;89.27;101504.84;10144186;28;20556;-72
2021/09/26 21:04:51;;;;;;;16.58;13.35;;;;;;;17.51;89.84;101496.22;10140077;28;20045;-71
2021/09/26 21:09:47;;;;;;;16.90;13.68;;;;;;;17.55;89.75;101499.91;10135137;28;20096;-71
2021/09/26 21:14:44;;;;;;;15.40;12.90;;;;;;;17.56;89.87;101493.22;10142149;28;20420;-72
2021/09/26 21:19:42;;;;;;;16.52;13.35;;;;;;;17.56;89.79;101493.22;10144716;28;20162;-71
2021/09/26 21:24:40;;;;;;;18.40;13.27;;;;;;;17.55;90.00;101488.88;10140618;28;20047;-72
2021/09/26 21:29:37;;;;;;;18.27;13.57;;;;;;;17.53;90.10;101491.16;10147649;28;20058;-72
2021/09/26 21:34:33;;;;;;;16.45;13.00;;;;;;;17.51;90.13;101491.50;10150733;28;20078;-72
2021/09/26 21:39:30;;;;;;;16.25;11.82;;;;;;;17.51;90.23;101490.69;10149264;28;20054;-72
2021/09/26 21:44:27;;;;;;;15.73;12.80;;;;;;;17.50;90.43;101483.53;10151863;28;20042;-70
2021/09/26 21:49:23;;;;;;;14.23;11.27;;;;;;;17.50;90.58;101489.06;10140827;28;20077;-71
2021/09/26 21:54:22;;;;;;;16.17;11.45;;;;;;;17.49;90.70;101487.47;10150943;28;20563;-71
2021/09/26 21:59:18;;;;;;;16.73;12.20;;;;;;;17.46;90.72;101492.53;10147276;28;20599;-70
2021/09/26 22:04:15;;;;;;;15.10;11.73;;;;;;;17.48;90.98;101496.94;10142430;28;20079;-71
2021/09/26 22:09:11;;;;;;;14.57;12.35;;;;;;;17.49;91.12;101504.06;10146605;28;20042;-71
2021/09/26 22:14:08;;;;;;;16.10;12.07;;;;;;;17.49;91.08;101504.06;10146371;28;20157;-71
2021/09/26 22:19:06;;;;;;;17.90;12.25;;;;;;;17.50;91.44;101506.50;10146355;28;20125;-71
2021/09/26 22:24:13;;;;;;;14.63;11.85;;;;;;;17.50;91.55;101511.19;10150342;28;20073;-71
2021/09/26 22:29:18;;;;;;;20.63;12.35;;;;;;;17.50;91.52;101511.19;10147045;28;20046;-69
2021/09/26 22:34:15;;;;;;;16.63;12.80;;;;;;;17.49;91.84;101509.59;10140799;28;20076;-69
2021/09/26 22:39:12;;;;;;;14.75;12.30;;;;;;;17.49;92.20;101520.66;10147375;28;20460;-70